createdAt,value
2018-10-09T00:01:53.323Z,68.03
2018-10-09T00:04:21.800Z,73.87
2018-10-09T00:06:50.645Z,78.70
2018-10-09T00:09:18.992Z,77.93
2018-10-09T00:11:47.311Z,85.23
2018-10-09T00:14:15.860Z,83.27
2018-10-09T00:16:44.316Z,86.60
2018-10-09T00:19:12.625Z,81.47
2018-10-09T00:21:40.965Z,91.90
2018-10-09T00:24:09.293Z,89.60
2018-10-09T00:26:37.618Z,77.83
2018-10-09T00:29:06.102Z,83.37
2018-10-09T00:31:34.462Z,97.40
2018-10-09T00:34:02.810Z,84.47
2018-10-09T00:36:31.337Z,95.37
2018-10-09T00:38:59.670Z,87.03
2018-10-09T00:41:28.100Z,90.80
2018-10-09T00:43:56.417Z,89.87
2018-10-09T00:46:24.937Z,85.33
2018-10-09T00:48:53.320Z,84.83
2018-10-09T00:51:21.657Z,84.50
2018-10-09T00:53:49.982Z,78.27
2018-10-09T00:56:18.337Z,84.33
2018-10-09T00:58:46.661Z,84.97
2018-10-09T01:01:15.106Z,83.10
2018-10-09T01:03:43.416Z,84.67
2018-10-09T01:06:11.748Z,97.70
2018-10-09T01:08:40.109Z,87.60
2018-10-09T01:11:08.445Z,96.20
2018-10-09T01:13:36.929Z,90.37
2018-10-09T01:16:05.407Z,89.70
2018-10-09T01:18:33.762Z,84.33
2018-10-09T01:21:02.093Z,87.90
2018-10-09T01:23:30.423Z,91.50
2018-10-09T01:25:58.921Z,89.20
2018-10-09T01:28:27.317Z,86.37
2018-10-09T01:30:55.639Z,85.70
2018-10-09T01:33:24.041Z,90.17
2018-10-09T01:35:52.402Z,91.07
2018-10-09T01:38:20.711Z,85.30
2018-10-09T01:40:49.033Z,90.77
2018-10-09T01:43:17.394Z,96.03
2018-10-09T01:45:45.726Z,95.27
2018-10-09T01:48:14.070Z,101.03
2018-10-09T01:50:42.880Z,89.73
2018-10-09T01:53:11.225Z,86.87
2018-10-09T01:55:39.613Z,77.73
2018-10-09T01:58:08.005Z,83.20
2018-10-09T02:00:36.324Z,79.83
2018-10-09T02:03:04.677Z,86.23
2018-10-09T02:05:33.207Z,87.17
2018-10-09T02:08:01.542Z,80.13
2018-10-09T02:10:29.888Z,86.40
2018-10-09T02:12:58.391Z,86.43
2018-10-09T02:15:26.874Z,81.97
2018-10-09T02:17:55.249Z,79.90
2018-10-09T02:20:23.587Z,82.97
2018-10-09T02:22:51.946Z,86.77
2018-10-09T02:25:20.252Z,87.37
2018-10-09T02:27:48.599Z,89.80
2018-10-09T02:30:17.086Z,86.73
2018-10-09T02:32:45.489Z,87.07
2018-10-09T02:35:13.805Z,90.27
2018-10-09T02:37:42.130Z,89.53
2018-10-09T02:40:10.617Z,94.23
2018-10-09T02:42:38.974Z,105.73
2018-10-09T02:45:07.364Z,98.20
2018-10-09T02:47:35.845Z,91.07
2018-10-09T02:50:04.471Z,97.27
2018-10-09T02:52:32.825Z,93.80
2018-10-09T02:55:01.234Z,94.93
2018-10-09T02:57:29.750Z,98.27
2018-10-09T02:59:58.174Z,84.80
2018-10-09T03:02:26.642Z,94.87
2018-10-09T03:04:54.960Z,95.37
2018-10-09T03:07:23.510Z,106.77
2018-10-09T03:09:51.890Z,105.43
2018-10-09T03:12:20.278Z,100.87
2018-10-09T03:14:48.629Z,100.33
2018-10-09T03:17:16.992Z,108.07
2018-10-09T03:19:45.311Z,106.73
2018-10-09T03:22:13.629Z,104.97
2018-10-09T03:24:41.981Z,109.23
2018-10-09T03:27:10.446Z,111.47
2018-10-09T03:29:38.805Z,109.67
2018-10-09T03:32:07.582Z,100.47
2018-10-09T03:34:36.030Z,93.70
2018-10-09T03:37:04.514Z,98.47
2018-10-09T03:39:33.781Z,98.30
2018-10-09T03:42:02.602Z,112.00
2018-10-09T03:44:30.924Z,99.90
2018-10-09T03:46:59.282Z,105.80
2018-10-09T03:49:27.661Z,108.43
2018-10-09T03:51:55.981Z,104.17
2018-10-09T03:54:24.389Z,106.43
2018-10-09T03:56:52.769Z,123.50
2018-10-09T03:59:21.137Z,121.63
2018-10-09T04:01:49.458Z,109.43
2018-10-09T04:04:17.917Z,128.37
2018-10-09T04:06:46.242Z,112.57
2018-10-09T04:09:14.848Z,113.43
2018-10-09T04:11:43.688Z,117.17
2018-10-09T04:14:12.134Z,118.70
2018-10-09T04:16:40.500Z,116.43
2018-10-09T04:19:08.866Z,118.50
2018-10-09T04:21:37.401Z,120.23
2018-10-09T04:24:05.822Z,127.57
2018-10-09T04:26:34.409Z,127.43
2018-10-09T04:29:02.873Z,129.53
2018-10-09T04:31:31.211Z,129.07
2018-10-09T04:33:59.577Z,126.53
2018-10-09T04:36:27.926Z,131.67
2018-10-09T04:38:56.290Z,138.93
2018-10-09T04:41:24.705Z,133.17
2018-10-09T04:43:53.026Z,131.83
2018-10-09T04:46:21.365Z,129.37
2018-10-09T04:48:50.053Z,128.53
2018-10-09T04:51:18.422Z,128.53
2018-10-09T04:53:46.737Z,123.10
2018-10-09T04:56:15.090Z,113.03
2018-10-09T04:58:43.530Z,119.53
2018-10-09T05:01:11.872Z,118.57
2018-10-09T05:03:40.220Z,115.00
2018-10-09T05:06:08.855Z,117.83
2018-10-09T05:08:37.169Z,119.17
2018-10-09T05:11:05.690Z,123.33
2018-10-09T05:13:34.132Z,106.57
2018-10-09T05:16:02.528Z,119.23
2018-10-09T05:18:30.869Z,119.57
2018-10-09T05:20:59.351Z,118.97
2018-10-09T05:23:27.726Z,115.23
2018-10-09T05:25:56.563Z,116.23
2018-10-09T05:28:24.885Z,109.17
2018-10-09T05:30:53.610Z,113.40
2018-10-09T05:33:21.930Z,118.03
2018-10-09T05:35:50.385Z,112.83
2018-10-09T05:38:18.742Z,115.90
2018-10-09T05:40:47.117Z,113.03
2018-10-09T05:43:15.551Z,122.57
2018-10-09T05:45:44.018Z,114.23
2018-10-09T05:48:12.430Z,113.80
2018-10-09T05:50:40.921Z,114.43
2018-10-09T05:53:09.341Z,118.60
2018-10-09T05:55:37.996Z,115.73
2018-10-09T05:58:06.760Z,113.20
2018-10-09T06:00:35.018Z,116.57
2018-10-09T06:03:03.337Z,109.17
2018-10-09T06:05:31.894Z,99.70
2018-10-09T06:08:00.197Z,105.10
2018-10-09T06:10:28.561Z,105.53
2018-10-09T06:12:56.886Z,96.30
2018-10-09T06:15:25.443Z,114.53
2018-10-09T06:17:53.905Z,113.60
2018-10-09T06:20:22.360Z,120.33
2018-10-09T06:22:51.050Z,115.07
2018-10-09T06:25:19.417Z,120.40
2018-10-09T06:27:47.806Z,125.67
2018-10-09T06:30:16.102Z,127.67
2018-10-09T06:32:44.517Z,120.83
2018-10-09T06:35:12.950Z,119.00
2018-10-09T06:37:41.262Z,119.50
2018-10-09T06:40:09.605Z,137.13
2018-10-09T06:42:37.985Z,127.03
2018-10-09T06:45:06.606Z,124.10
2018-10-09T06:47:35.237Z,130.23
2018-10-09T06:50:03.552Z,131.80
2018-10-09T06:52:32.318Z,122.67
2018-10-09T06:55:00.777Z,123.00
2018-10-09T06:57:29.102Z,117.43
2018-10-09T06:59:57.628Z,127.83
2018-10-09T07:02:25.978Z,120.40
2018-10-09T07:04:54.334Z,122.40
2018-10-09T07:07:22.740Z,127.73
2018-10-09T07:09:51.138Z,123.57
2018-10-09T07:12:19.450Z,129.67
2018-10-09T07:14:47.937Z,128.77
2018-10-09T07:17:16.382Z,130.00
2018-10-09T07:19:44.724Z,122.17
2018-10-09T07:22:13.082Z,119.60
2018-10-09T07:24:41.482Z,129.70
2018-10-09T07:27:09.887Z,122.17
2018-10-09T07:29:38.236Z,118.23
2018-10-09T07:32:08.065Z,112.23
2018-10-09T07:34:36.399Z,117.03
2018-10-09T07:37:04.770Z,108.37
2018-10-09T07:39:33.116Z,109.80
2018-10-09T07:42:01.814Z,110.10
2018-10-09T07:44:30.344Z,112.87
2018-10-09T07:46:58.710Z,111.37
2018-10-09T07:49:27.092Z,104.60
2018-10-09T07:51:55.429Z,101.33
2018-10-09T07:54:23.774Z,106.93
2018-10-09T07:56:52.253Z,98.10
2018-10-09T07:59:20.582Z,104.57
2018-10-09T08:01:49.045Z,106.60
2018-10-09T08:04:17.369Z,96.07
2018-10-09T08:06:45.741Z,88.47
2018-10-09T08:09:14.078Z,101.30
2018-10-09T08:11:42.428Z,99.43
2018-10-09T08:14:11.071Z,93.37
2018-10-09T08:16:39.580Z,98.30
2018-10-09T08:19:07.922Z,105.30
2018-10-09T08:21:36.316Z,101.30
2018-10-09T08:24:04.682Z,101.57
2018-10-09T08:26:33.070Z,100.40
2018-10-09T08:29:01.443Z,105.20
2018-10-09T08:31:29.820Z,98.37
2018-10-09T08:33:58.193Z,94.70
2018-10-09T08:36:26.534Z,96.17
2018-10-09T08:38:55.260Z,98.87
2018-10-09T08:41:23.836Z,100.63
2018-10-09T08:43:53.115Z,96.67
2018-10-09T08:46:21.586Z,91.67
2018-10-09T08:48:49.828Z,90.47
2018-10-09T08:51:18.210Z,99.00
2018-10-09T08:53:46.594Z,110.00
2018-10-09T08:56:15.122Z,100.30
2018-10-09T08:58:43.535Z,100.70
2018-10-09T09:01:11.891Z,99.67
2018-10-09T09:03:40.256Z,108.53
2018-10-09T09:06:08.623Z,100.87
2018-10-09T09:08:36.957Z,101.90
2018-10-09T09:11:05.334Z,91.03
2018-10-09T09:13:33.693Z,96.70
2018-10-09T09:16:02.355Z,88.90
2018-10-09T09:18:30.915Z,101.13
2018-10-09T09:20:59.384Z,91.60
2018-10-09T09:23:27.718Z,95.10
2018-10-09T09:25:56.379Z,95.10
2018-10-09T09:28:24.930Z,93.60
2018-10-09T09:30:53.334Z,85.00
2018-10-09T09:33:22.035Z,83.43
2018-10-09T09:35:50.394Z,90.07
2018-10-09T09:38:19.420Z,84.30
2018-10-09T09:40:48.105Z,90.67
2018-10-09T09:43:16.766Z,82.40
2018-10-09T09:45:45.302Z,90.77
2018-10-09T09:48:13.749Z,98.13
2018-10-09T09:50:42.121Z,89.07
2018-10-09T09:53:10.511Z,86.73
2018-10-09T09:55:38.803Z,82.37
2018-10-09T09:58:07.325Z,85.17
2018-10-09T10:00:44.074Z,74.53
2018-10-09T10:03:12.530Z,81.27
2018-10-09T10:05:40.879Z,80.53
2018-10-09T10:08:09.217Z,82.47
2018-10-09T10:10:37.599Z,73.73
2018-10-09T10:13:05.971Z,77.73
2018-10-09T10:15:34.351Z,76.53
2018-10-09T10:18:02.870Z,75.83
2018-10-09T10:20:31.221Z,74.23
2018-10-09T10:22:59.733Z,69.30
2018-10-09T10:25:28.081Z,74.40
2018-10-09T10:27:56.437Z,76.63
2018-10-09T10:30:24.817Z,72.13
2018-10-09T10:32:53.143Z,66.57
2018-10-09T10:35:21.462Z,74.60
2018-10-09T10:37:49.845Z,68.23
2018-10-09T10:40:18.206Z,59.20
2018-10-09T10:42:46.590Z,56.33
2018-10-09T10:45:14.923Z,53.57
2018-10-09T10:47:43.376Z,54.20
2018-10-09T10:50:11.857Z,49.47
2018-10-09T10:52:40.238Z,48.77
2018-10-09T10:55:08.741Z,53.30
2018-10-09T10:57:37.057Z,51.40
2018-10-09T11:00:06.201Z,50.87
2018-10-09T11:02:34.869Z,52.77
2018-10-09T11:05:03.225Z,48.90
2018-10-09T11:07:31.718Z,49.20
2018-10-09T11:10:00.159Z,56.77
2018-10-09T11:12:28.547Z,48.93
2018-10-09T11:14:57.162Z,48.97
2018-10-09T11:17:25.550Z,50.80
2018-10-09T11:19:53.892Z,50.23
2018-10-09T11:22:22.412Z,50.87
2018-10-09T11:24:51.004Z,49.67
2018-10-09T11:27:19.582Z,50.77
2018-10-09T11:29:48.189Z,48.70
2018-10-09T11:32:16.568Z,50.67
2018-10-09T11:34:44.913Z,49.70
2018-10-09T11:37:12.952Z,51.13
2018-10-09T11:39:41.522Z,51.83
2018-10-09T11:42:09.861Z,49.90
2018-10-09T11:44:38.346Z,55.53
2018-10-09T11:47:06.886Z,48.57
2018-10-09T11:49:35.337Z,54.67
2018-10-09T11:52:03.717Z,49.47
2018-10-09T11:54:32.055Z,51.67
2018-10-09T11:57:00.686Z,50.20
2018-10-09T11:59:29.042Z,50.90
2018-10-09T12:01:57.451Z,51.10
2018-10-09T12:04:25.827Z,51.30
2018-10-09T12:06:54.165Z,48.30
2018-10-09T12:09:22.734Z,53.90
2018-10-09T12:11:51.182Z,48.10
2018-10-09T12:14:19.657Z,47.87
2018-10-09T12:16:48.033Z,48.43
2018-10-09T12:19:16.390Z,48.43
2018-10-09T12:21:44.725Z,53.93
2018-10-09T12:24:13.128Z,47.30
2018-10-09T12:26:41.486Z,44.00
2018-10-09T12:29:09.818Z,46.00
2018-10-09T12:31:38.214Z,46.50
2018-10-09T12:34:07.515Z,49.27
2018-10-09T12:36:35.986Z,49.57
2018-10-09T12:39:08.070Z,46.30
2018-10-09T12:41:36.546Z,50.13
2018-10-09T12:44:04.963Z,48.23
2018-10-09T12:46:33.519Z,44.40
2018-10-09T12:49:01.880Z,46.53
2018-10-09T12:51:30.222Z,46.33
2018-10-09T12:53:58.737Z,43.73
2018-10-09T12:56:27.080Z,53.00
2018-10-09T12:58:55.587Z,52.10
2018-10-09T13:01:24.058Z,47.67
2018-10-09T13:03:52.594Z,50.37
2018-10-09T13:06:20.917Z,48.80
2018-10-09T13:08:49.258Z,49.73
2018-10-09T13:11:17.609Z,46.87
2018-10-09T13:13:45.980Z,46.40
2018-10-09T13:16:14.414Z,45.97
2018-10-09T13:18:42.792Z,45.23
2018-10-09T13:21:11.315Z,42.90
2018-10-09T13:23:39.556Z,46.43
2018-10-09T13:26:07.910Z,43.77
2018-10-09T13:28:36.303Z,42.80
2018-10-09T13:31:04.720Z,47.30
2018-10-09T13:33:32.980Z,42.33
2018-10-09T13:36:01.562Z,43.80
2018-10-09T13:38:30.110Z,44.40
2018-10-09T13:40:58.501Z,43.33
2018-10-09T13:43:26.829Z,43.37
2018-10-09T13:45:55.258Z,43.87
2018-10-09T13:48:23.625Z,42.50
2018-10-09T13:50:52.090Z,38.10
2018-10-09T13:53:20.378Z,39.83
2018-10-09T13:55:48.890Z,40.33
2018-10-09T13:58:17.287Z,39.03
2018-10-09T14:00:46.153Z,40.53
2018-10-09T14:03:14.469Z,43.27
2018-10-09T14:05:43.029Z,45.20
2018-10-09T14:08:11.354Z,38.10
2018-10-09T14:10:39.734Z,39.70
2018-10-09T14:13:08.136Z,41.33
2018-10-09T14:15:36.506Z,38.90
2018-10-09T14:18:04.884Z,39.27
2018-10-09T14:20:33.381Z,41.23
2018-10-09T14:23:01.767Z,39.70
2018-10-09T14:25:30.077Z,42.67
2018-10-09T14:27:58.405Z,39.70
2018-10-09T14:30:26.756Z,40.20
2018-10-09T14:32:55.121Z,38.80
2018-10-09T14:35:23.574Z,39.47
2018-10-09T14:37:51.917Z,41.37
2018-10-09T14:40:20.298Z,40.07
2018-10-09T14:42:48.651Z,39.53
2018-10-09T14:45:17.100Z,39.10
2018-10-09T14:47:45.474Z,41.80
2018-10-09T14:50:13.851Z,41.50
2018-10-09T14:52:42.217Z,36.80
2018-10-09T14:55:10.546Z,38.77
2018-10-09T14:57:38.937Z,39.17
2018-10-09T15:00:09.126Z,38.93
2018-10-09T15:02:37.493Z,39.83
2018-10-09T15:05:05.823Z,37.20
2018-10-09T15:07:34.191Z,41.37
2018-10-09T15:10:02.561Z,38.00
2018-10-09T15:12:30.958Z,38.60
2018-10-09T15:14:59.501Z,38.10
2018-10-09T15:17:27.858Z,36.13
2018-10-09T15:19:56.198Z,37.00
2018-10-09T15:22:24.539Z,36.47
2018-10-09T15:24:52.981Z,41.57
2018-10-09T15:27:21.370Z,38.03
2018-10-09T15:29:49.889Z,37.67
2018-10-09T15:32:18.359Z,39.40
2018-10-09T15:34:46.737Z,39.27
2018-10-09T15:37:15.075Z,38.10
2018-10-09T15:39:43.524Z,37.43
2018-10-09T15:42:11.987Z,36.97
2018-10-09T15:44:40.349Z,35.70
2018-10-09T15:47:08.771Z,35.90
2018-10-09T15:49:37.233Z,38.37
2018-10-09T15:52:05.645Z,39.87
2018-10-09T15:54:33.990Z,38.20
2018-10-09T15:57:02.463Z,39.00
2018-10-09T15:59:30.793Z,39.37
2018-10-09T16:01:59.157Z,38.07
2018-10-09T16:04:27.521Z,36.40
2018-10-09T16:06:55.978Z,39.77
2018-10-09T16:09:24.307Z,39.17
2018-10-09T16:11:52.664Z,38.20
2018-10-09T16:14:21.165Z,40.27
2018-10-09T16:16:49.515Z,48.50
2018-10-09T16:19:17.895Z,40.40
2018-10-09T16:21:46.403Z,42.47
2018-10-09T16:24:14.886Z,50.67
2018-10-09T16:26:43.325Z,41.73
2018-10-09T16:29:11.739Z,39.70
2018-10-09T16:31:40.090Z,40.10
2018-10-09T16:34:08.431Z,41.53
2018-10-09T16:36:36.830Z,42.60
2018-10-09T16:39:08.350Z,44.70
2018-10-09T16:41:36.697Z,42.57
2018-10-09T16:44:05.075Z,44.30
2018-10-09T16:46:33.627Z,46.53
2018-10-09T16:49:02.192Z,44.07
2018-10-09T16:51:30.736Z,48.60
2018-10-09T16:53:59.107Z,45.87
2018-10-09T16:56:27.470Z,44.00
2018-10-09T16:58:56.038Z,45.47
2018-10-09T17:01:24.516Z,48.03
2018-10-09T17:03:52.892Z,45.80
2018-10-09T17:06:21.310Z,46.43
2018-10-09T17:08:49.746Z,45.50
2018-10-09T17:11:18.133Z,47.87
2018-10-09T17:13:46.474Z,46.40
2018-10-09T17:16:14.875Z,48.57
2018-10-09T17:18:43.285Z,48.47
2018-10-09T17:21:11.626Z,47.23
2018-10-09T17:23:40.061Z,49.00
2018-10-09T17:26:08.545Z,52.47
2018-10-09T17:28:37.036Z,49.70
2018-10-09T17:31:05.698Z,52.50
2018-10-09T17:33:34.146Z,52.57
2018-10-09T17:36:02.602Z,52.70
2018-10-09T17:38:31.258Z,49.30
2018-10-09T17:40:59.770Z,50.80
2018-10-09T17:43:28.453Z,56.33
2018-10-09T17:45:56.837Z,61.53
2018-10-09T17:48:25.281Z,56.70
2018-10-09T17:50:53.678Z,57.50
2018-10-09T17:53:22.011Z,58.40
2018-10-09T17:55:50.453Z,58.30
2018-10-09T17:58:18.866Z,59.47
2018-10-09T18:00:47.481Z,58.87
2018-10-09T18:03:15.859Z,66.37
2018-10-09T18:05:44.314Z,63.73
2018-10-09T18:08:13.111Z,64.90
2018-10-09T18:10:41.924Z,67.30
2018-10-09T18:13:10.366Z,67.97
2018-10-09T18:15:38.800Z,61.73
2018-10-09T18:18:07.163Z,67.60
2018-10-09T18:20:37.258Z,60.03
2018-10-09T18:23:05.659Z,63.30
2018-10-09T18:25:34.022Z,68.03
2018-10-09T18:28:02.408Z,69.00
2018-10-09T18:30:30.795Z,63.03
2018-10-09T18:32:59.390Z,67.50
2018-10-09T18:35:27.735Z,63.73
2018-10-09T18:37:56.289Z,70.67
2018-10-09T18:40:24.798Z,67.70
2018-10-09T18:42:53.219Z,81.33
2018-10-09T18:45:21.677Z,70.10
2018-10-09T18:47:50.062Z,69.20
2018-10-09T18:50:18.465Z,67.17
2018-10-09T18:52:46.839Z,66.60
2018-10-09T18:55:16.883Z,69.90
2018-10-09T18:57:46.119Z,74.10
2018-10-09T19:00:14.842Z,70.60
2018-10-09T19:02:43.234Z,76.10
2018-10-09T19:05:11.695Z,80.93
2018-10-09T19:07:40.623Z,71.00
2018-10-09T19:10:09.826Z,76.93
2018-10-09T19:12:38.313Z,71.17
2018-10-09T19:15:06.890Z,83.57
2018-10-09T19:17:35.240Z,72.13
2018-10-09T19:20:03.705Z,76.37
2018-10-09T19:22:32.170Z,75.50
2018-10-09T19:25:00.642Z,81.87
2018-10-09T19:27:29.029Z,74.17
2018-10-09T19:29:57.422Z,75.87
2018-10-09T19:32:25.839Z,76.37
2018-10-09T19:34:54.200Z,74.63
2018-10-09T19:37:22.876Z,73.63
2018-10-09T19:39:51.453Z,74.20
2018-10-09T19:42:21.427Z,79.57
2018-10-09T19:44:49.993Z,77.07
2018-10-09T19:47:18.501Z,81.60
2018-10-09T19:49:46.945Z,77.23
2018-10-09T19:52:15.305Z,76.90
2018-10-09T19:54:43.693Z,79.80
2018-10-09T19:57:12.083Z,79.87
2018-10-09T19:59:40.546Z,76.20
2018-10-09T20:02:08.927Z,69.53
2018-10-09T20:04:37.301Z,78.70
2018-10-09T20:07:05.679Z,79.77
2018-10-09T20:09:34.148Z,79.07
2018-10-09T20:12:02.530Z,82.97
2018-10-09T20:14:31.382Z,82.87
2018-10-09T20:16:59.655Z,75.93
2018-10-09T20:19:28.117Z,78.83
2018-10-09T20:21:56.507Z,74.70
2018-10-09T20:24:24.987Z,75.23
2018-10-09T20:26:54.145Z,80.63
2018-10-09T20:29:22.681Z,81.53
2018-10-09T20:31:51.179Z,87.37
2018-10-09T20:34:19.554Z,89.33
2018-10-09T20:36:48.019Z,91.20
2018-10-09T20:39:16.565Z,75.87
2018-10-09T20:41:44.948Z,83.80
2018-10-09T20:44:13.455Z,89.80
2018-10-09T20:46:41.865Z,88.63
2018-10-09T20:49:10.262Z,87.40
2018-10-09T20:51:38.726Z,89.73
2018-10-09T20:54:07.935Z,91.63
2018-10-09T20:56:36.316Z,86.23
2018-10-09T20:59:05.377Z,85.40
2018-10-09T21:01:34.483Z,96.80
2018-10-09T21:04:03.233Z,93.70
2018-10-09T21:06:31.634Z,90.87
2018-10-09T21:09:00.197Z,98.07
2018-10-09T21:11:28.570Z,96.43
2018-10-09T21:13:56.966Z,89.07
2018-10-09T21:16:25.326Z,87.37
2018-10-09T21:18:53.678Z,86.90
2018-10-09T21:21:22.086Z,92.77
2018-10-09T21:23:50.450Z,88.00
2018-10-09T21:26:18.997Z,87.10
2018-10-09T21:28:47.542Z,85.10
2018-10-09T21:31:15.883Z,89.90
2018-10-09T21:33:44.590Z,87.90
2018-10-09T21:36:12.936Z,90.57
2018-10-09T21:38:41.298Z,91.20
2018-10-09T21:41:09.782Z,84.50
2018-10-09T21:43:38.166Z,87.20
2018-10-09T21:46:06.897Z,86.20
2018-10-09T21:48:35.245Z,86.43
2018-10-09T21:51:03.650Z,89.20
2018-10-09T21:53:31.992Z,88.10
2018-10-09T21:56:00.339Z,99.40
2018-10-09T21:58:28.759Z,101.33
2018-10-09T22:01:02.425Z,102.77
2018-10-09T22:03:30.809Z,94.33
2018-10-09T22:05:59.329Z,90.50
2018-10-09T22:08:27.794Z,93.97
2018-10-09T22:10:56.190Z,94.10
2018-10-09T22:13:24.679Z,94.77
2018-10-09T22:15:53.046Z,89.00
2018-10-09T22:18:21.821Z,90.97
2018-10-09T22:20:50.174Z,85.87
2018-10-09T22:23:18.577Z,100.13
2018-10-09T22:25:47.205Z,96.30
2018-10-09T22:28:15.610Z,101.70
2018-10-09T22:30:44.001Z,98.10
2018-10-09T22:33:12.482Z,108.57
2018-10-09T22:35:40.937Z,106.83
2018-10-09T22:38:10.645Z,114.97
2018-10-09T22:40:38.986Z,106.03
2018-10-09T22:43:07.302Z,108.60
2018-10-09T22:45:35.863Z,98.67
2018-10-09T22:48:04.315Z,110.27
2018-10-09T22:50:32.766Z,103.87
2018-10-09T22:53:01.118Z,106.20
2018-10-09T22:55:29.514Z,109.77
2018-10-09T22:57:58.053Z,107.27
2018-10-09T23:00:26.419Z,107.60
2018-10-09T23:02:54.785Z,106.53
2018-10-09T23:05:23.189Z,110.30
2018-10-09T23:07:51.690Z,109.73
2018-10-09T23:10:20.052Z,97.83
2018-10-09T23:12:48.423Z,99.97
2018-10-09T23:15:16.874Z,95.33
2018-10-09T23:17:45.249Z,97.47
2018-10-09T23:20:13.600Z,109.87
2018-10-09T23:22:41.949Z,96.47
2018-10-09T23:25:10.809Z,108.33
2018-10-09T23:27:39.250Z,107.20
2018-10-09T23:30:08.518Z,103.40
2018-10-09T23:32:36.923Z,101.83
2018-10-09T23:35:05.275Z,101.47
2018-10-09T23:37:33.624Z,99.27
2018-10-09T23:40:02.169Z,97.40
2018-10-09T23:42:30.735Z,105.97
2018-10-09T23:44:59.310Z,102.93
2018-10-09T23:47:27.823Z,105.90
2018-10-09T23:49:56.170Z,104.03
2018-10-09T23:52:24.581Z,103.23
2018-10-09T23:54:52.917Z,96.40
2018-10-09T23:57:21.281Z,101.90
2018-10-09T23:59:49.735Z,111.60
